TAF KPAH
KPAH 090544Z 0906/1006 15005KT P6SM SCT250 FM091600 19014G27KT P6SM FEW250 FM091900 20015G27KT P6SM BKN023 FM100400 20005KT P6SM OVC015=
METAR KPAH
WC KPAH
WS KPAH
WV KPAH